Weather History for Charlotte, MI

Change the Weather History Date:

Wednesday, October 2, 2013

  Actual Average (KLAN) Record (KLAN)
Temperature  
Mean Temperature 63 °F 55 °F  
Max Temperature 78 °F 66 °F 86 °F (1922)
Min Temperature 48 °F 45 °F 25 °F (1974)
Degree Days  
Heating Degree Days 2 10  
Month to date heating degree days 20  
Since 1 July heating degree days 208  
Cooling Degree Days 0 1  
Month to date cooling degree days 2  
Year to date cooling degree days 620  
Growing Degree Days 13 (Base 50)    
Moisture  
Dew Point 50 °F    
Average Humidity 71    
Maximum Humidity 100    
Minimum Humidity 24    
Precipitation  
Precipitation 0.00 in 0.09 in 2.43 in (1884)
Month to date precipitation 0.18  
Year to date precipitation 24.77  
Snow  
Snow 0.00 in 0.00 in T in (1974)
Month to date snowfall 0.0  
Since 1 July snowfall 0.0  
Since 1 September snowfall 0.0  
Snow Depth -    
Sea Level Pressure  
Sea Level Pressure 30.04 in    
Wind  
Wind Speed 3 mph (WSW)    
Max Wind Speed 7 mph    
Max Gust Speed -    
Visibility 7 miles    
Events Fog    
T = Trace of Precipitation, MM = Missing Value Source: NWS Daily Summary

Daily Weather History Graph

Daily Weather History Graph

Search for Another Location

Airport:

Trip Planner

Search our weather history database for the weather conditions in past years. The results will help you decide how hot, cold, wet, or windy it might be!

Date:

Astronomy

Oct. 02, 2013 Rise Set
Actual Time 7:37 AM EDT 7:18 PM EDT
Civil Twilight 7:09 AM EDT 7:46 PM EDT
Nautical Twilight 6:36 AM EDT 8:19 PM EDT
Astronomical Twilight 6:03 AM EDT 8:52 PM EDT
Moon 5:07 AM EDT (10/2) 5:55 PM EDT (10/2)
Length of Visible Light 12h 36m
Length of Day
11h 40m
Waning Crescent, 6% of the Moon is Illuminated
Oct 2
Waning Crescent
Oct 4
New
Oct 11
First Quarter
Oct 18
Full
Oct 26
Last Quarter

Hourly Weather History & Observations

Time (EDT) Temp. Dew Point Humidity Pressure Visibility Wind Dir Wind Speed Gust Speed Precip Events Conditions
12:00 AM 62.6 °F 60.8 °F 94% 29.94 in 7.0 mi SSW 5.8 mph - N/A   Clear
12:24 AM 62.6 °F 60.8 °F 94% 29.94 in 7.0 mi SSW 5.8 mph - N/A   Clear
12:44 AM 62.6 °F 60.8 °F 94% 29.94 in 7.0 mi SSW 4.6 mph - N/A   Clear
12:59 AM 62.6 °F 60.8 °F 94% 29.95 in 7.0 mi SSW 5.8 mph - N/A   Clear
1:19 AM 62.6 °F 60.8 °F 94% 29.95 in 7.0 mi SSW 5.8 mph - N/A   Clear
1:39 AM 62.6 °F 60.8 °F 94% 29.96 in 7.0 mi SSW 4.6 mph - N/A   Clear
1:59 AM 62.6 °F 60.8 °F 94% 29.96 in 7.0 mi SSW 3.5 mph - N/A   Clear
2:19 AM 60.8 °F 60.8 °F 100% 29.96 in 7.0 mi SW 3.5 mph - N/A   Clear
2:40 AM 60.8 °F 60.8 °F 100% 29.97 in 5.0 mi SW 3.5 mph - N/A   Clear
2:58 AM 60.8 °F 60.8 °F 100% 29.97 in 5.0 mi SSW 3.5 mph - N/A   Clear
3:18 AM 60.8 °F 60.8 °F 100% 29.97 in 5.0 mi SSW 4.6 mph - N/A   Scattered Clouds
3:39 AM 60.8 °F 60.8 °F 100% 29.98 in 5.0 mi SSW 3.5 mph - N/A   Scattered Clouds
3:59 AM 60.8 °F 59.0 °F 94% 29.98 in 4.0 mi Calm Calm - N/A   Clear
4:19 AM 59.0 °F 59.0 °F 100% 29.99 in 3.0 mi Calm Calm - N/A   Clear
4:38 AM 59.0 °F 59.0 °F 100% 29.99 in 3.0 mi Calm Calm - N/A   Clear
4:59 AM 57.2 °F 57.2 °F 100% 30.00 in 0.5 mi Calm Calm - N/A Fog Fog
5:19 AM 55.4 °F 55.4 °F 100% 30.01 in 0.2 mi Calm Calm - N/A Fog Fog
5:39 AM 55.4 °F 55.4 °F 100% 30.01 in 0.2 mi Calm Calm - N/A Fog Fog
5:58 AM 57.2 °F 57.2 °F 100% 30.02 in 0.2 mi Calm Calm - N/A Fog Fog
6:18 AM 53.6 °F 53.6 °F 100% 30.02 in 0.2 mi Calm Calm - N/A Fog Fog
6:38 AM 55.4 °F 55.4 °F 100% 30.03 in 0.2 mi Calm Calm - N/A Fog Fog
6:59 AM 53.6 °F 53.6 °F 100% 30.03 in 0.2 mi Calm Calm - N/A Fog Fog
7:19 AM 51.8 °F 51.8 °F 100% 30.04 in 0.2 mi Calm Calm - N/A Fog Fog
7:39 AM 50.0 °F 50.0 °F 100% 30.04 in 0.2 mi Calm Calm - N/A Fog Fog
7:59 AM 50.0 °F 50.0 °F 100% 30.05 in 0.2 mi Calm Calm - N/A Fog Fog
8:19 AM 50.0 °F 50.0 °F 100% 30.06 in 0.2 mi Calm Calm - N/A Fog Fog
8:39 AM 51.8 °F 51.8 °F 100% 30.06 in 0.2 mi Calm Calm - N/A Fog Fog
9:00 AM 55.4 °F 55.4 °F 100% 30.07 in 1.0 mi Calm Calm - N/A   Mist
9:21 AM 59.0 °F 59.0 °F 100% 30.08 in 5.0 mi Calm Calm - N/A   Clear
9:40 AM 60.8 °F 59.0 °F 94% 30.08 in 10.0 mi NNW 3.5 mph - N/A   Clear
9:59 AM 64.4 °F 57.2 °F 77% 30.09 in 10.0 mi NNW 3.5 mph - N/A   Clear
10:19 AM 66.2 °F 55.4 °F 68% 30.10 in 10.0 mi Calm Calm - N/A   Clear
10:39 AM 68.0 °F 53.6 °F 60% 30.10 in 10.0 mi Calm Calm - N/A   Clear
10:59 AM 68.0 °F 51.8 °F 56% 30.10 in 10.0 mi Calm Calm - N/A   Clear
11:19 AM 69.8 °F 50.0 °F 49% 30.10 in 10.0 mi Calm Calm - N/A   Clear
11:39 AM 69.8 °F 48.2 °F 46% 30.10 in 10.0 mi Calm Calm - N/A   Clear
11:59 AM 71.6 °F 41.0 °F 33% 30.10 in 10.0 mi Calm Calm - N/A   Clear
12:19 PM 71.6 °F 44.6 °F 38% 30.10 in 10.0 mi NNW 3.5 mph - N/A   Clear
12:40 PM 73.4 °F 42.8 °F 33% 30.09 in 10.0 mi Calm Calm - N/A   Clear
12:58 PM 73.4 °F 42.8 °F 33% 30.09 in 10.0 mi Calm Calm - N/A   Clear
1:19 PM 75.2 °F 41.0 °F 29% 30.09 in 10.0 mi Calm Calm - N/A   Clear
1:38 PM 77.0 °F 39.2 °F 26% 30.09 in 10.0 mi Calm Calm - N/A   Clear
1:59 PM 77.0 °F 41.0 °F 28% 30.08 in 10.0 mi WNW 5.8 mph - N/A   Clear
2:19 PM 77.0 °F 41.0 °F 28% 30.07 in 10.0 mi Calm Calm - N/A   Clear
2:39 PM 77.0 °F 41.0 °F 28% 30.06 in 10.0 mi WNW 6.9 mph - N/A   Clear
2:59 PM 78.8 °F 41.0 °F 26% 30.06 in 10.0 mi West 5.8 mph - N/A   Clear
3:19 PM 77.0 °F 41.0 °F 28% 30.06 in 10.0 mi Calm Calm - N/A   Clear
3:40 PM 77.0 °F 41.0 °F 28% 30.06 in 10.0 mi WSW 6.9 mph - N/A   Clear
4:00 PM 78.8 °F 41.0 °F 26% 30.05 in 10.0 mi West 6.9 mph - N/A   Clear
4:19 PM 78.8 °F 41.0 °F 26% 30.05 in 10.0 mi Calm Calm - N/A   Clear
4:39 PM 77.0 °F 41.0 °F 28% 30.05 in 10.0 mi NW 3.5 mph - N/A   Clear
4:59 PM 78.8 °F 39.2 °F 24% 30.04 in 10.0 mi West 5.8 mph - N/A   Clear
5:18 PM 77.0 °F 41.0 °F 28% 30.04 in 10.0 mi West 3.5 mph - N/A   Clear
5:47 PM 77.0 °F 41.0 °F 28% 30.04 in 10.0 mi West 4.6 mph - N/A   Clear
6:01 PM 77.0 °F 41.0 °F 28% 30.04 in 10.0 mi West 3.5 mph - N/A   Clear
6:22 PM 75.2 °F 42.8 °F 31% 30.04 in 10.0 mi West 3.5 mph - N/A   Clear
6:46 PM 73.4 °F 41.0 °F 31% 30.04 in 10.0 mi WNW 3.5 mph - N/A   Clear
7:00 PM 69.8 °F 42.8 °F 38% 30.05 in 10.0 mi Calm Calm - N/A   Clear
7:20 PM 66.2 °F 44.6 °F 46% 30.05 in 10.0 mi Calm Calm - N/A   Clear
7:41 PM 62.6 °F 46.4 °F 55% 30.05 in 10.0 mi Calm Calm - N/A   Clear
8:01 PM 59.0 °F 48.2 °F 67% 30.05 in 10.0 mi Calm Calm - N/A   Clear
8:30 PM 57.2 °F 48.2 °F 72% 30.05 in 10.0 mi Calm Calm - N/A   Clear
8:45 PM 55.4 °F 48.2 °F 77% 30.05 in 10.0 mi Calm Calm - N/A   Clear
9:00 PM 53.6 °F 48.2 °F 82% 30.06 in 10.0 mi Calm Calm - N/A   Clear
9:33 PM 53.6 °F 48.2 °F 82% 30.06 in 10.0 mi Calm Calm - N/A   Clear
9:40 PM 53.6 °F 48.2 °F 82% 30.06 in 10.0 mi Calm Calm - N/A   Clear
9:59 PM 50.0 °F 48.2 °F 94% 30.05 in 10.0 mi Calm Calm - N/A   Clear
10:21 PM 51.8 °F 48.2 °F 88% 30.05 in 10.0 mi Calm Calm - N/A   Clear
10:45 PM 50.0 °F 48.2 °F 94% 30.06 in 10.0 mi Calm Calm - N/A   Clear
11:00 PM 50.0 °F 48.2 °F 94% 30.05 in 10.0 mi Calm Calm - N/A   Clear
11:25 PM 48.2 °F 46.4 °F 93% 30.05 in 10.0 mi Calm Calm - N/A   Clear
11:39 PM 48.2 °F 46.4 °F 93% 30.05 in 10.0 mi Calm Calm - N/A   Clear
11:59 PM 50.0 °F 48.2 °F 94% 30.06 in 10.0 mi Calm Calm - N/A   Clear